Time;durP1;ratioP1;P1;durP2;ratioP2;P2;SDS_P1;SDS_P2;PMS_P1;PMS_P2;Temp;Humidity;BMP_temperature;BMP_pressure;BME280_temperature;BME280_humidity;BME280_pressure;Samples;Min_cycle;Max_cycle;Signal;HPM_P1;HPM_P2
2023/10/06 00:01:40;;;;;;;8.73;3.95;;;15.00;93.10;;;;;;5076660;28;20021;-76
2023/10/06 00:04:07;;;;;;;6.72;3.97;;;15.00;93.10;;;;;;5076627;28;20103;-76
2023/10/06 00:06:37;;;;;;;7.20;3.65;;;14.90;93.00;;;;;;5076595;28;20028;-76
2023/10/06 00:09:06;;;;;;;7.05;3.60;;;14.90;93.10;;;;;;5075662;28;20432;-76
2023/10/06 00:11:33;;;;;;;8.30;4.18;;;14.90;93.10;;;;;;5076489;28;20025;-76
2023/10/06 00:14:07;;;;;;;8.13;4.68;;;14.80;93.10;;;;;;5076616;28;20029;-76
2023/10/06 00:16:39;;;;;;;7.20;3.72;;;14.80;93.20;;;;;;5076535;28;20021;-76
2023/10/06 00:19:27;;;;;;;;;;;14.70;93.30;;;;;;5076846;28;20028;-75
2023/10/06 00:24:51;;;;;;;8.82;3.88;;;14.60;93.60;;;;;;5031933;28;20029;-76
2023/10/06 00:27:23;;;;;;;12.07;5.00;;;14.50;93.70;;;;;;5076155;28;20032;-76
2023/10/06 00:29:54;;;;;;;7.78;4.32;;;14.50;94.10;;;;;;5058442;28;20021;-76
2023/10/06 00:32:25;;;;;;;9.85;4.60;;;14.40;94.10;;;;;;5076313;28;20029;-75
2023/10/06 00:35:09;;;;;;;7.53;4.55;;;14.40;94.70;;;;;;5076036;28;20021;-75
2023/10/06 00:37:36;;;;;;;6.95;3.80;;;14.40;94.40;;;;;;5076008;28;20055;-76
2023/10/06 00:40:09;;;;;;;9.85;4.28;;;14.40;94.40;;;;;;5076026;28;20085;-76
2023/10/06 00:42:35;;;;;;;7.90;4.50;;;14.30;94.50;;;;;;5075148;28;20040;-75
2023/10/06 00:45:01;;;;;;;8.82;3.83;;;14.30;94.60;;;;;;5058205;28;20491;-76
2023/10/06 00:47:38;;;;;;;9.43;4.22;;;14.40;94.50;;;;;;5058239;28;20025;-76
2023/10/06 00:50:06;;;;;;;8.23;4.18;;;14.40;94.50;;;;;;5074963;28;20029;-75
2023/10/06 00:52:33;;;;;;;8.93;3.95;;;14.40;94.60;;;;;;5075731;28;20084;-76
2023/10/06 00:55:02;;;;;;;7.95;4.10;;;14.40;94.60;;;;;;5057998;28;20100;-75
2023/10/06 00:57:28;;;;;;;9.80;4.60;;;14.40;94.50;;;;;;5075598;28;20043;-76
2023/10/06 00:59:55;;;;;;;9.27;3.72;;;14.40;94.50;;;;;;5075473;28;20052;-76
2023/10/06 01:02:23;;;;;;;11.18;5.18;;;14.40;94.30;;;;;;5075504;28;20025;-76
2023/10/06 01:04:52;;;;;;;10.70;3.92;;;14.40;94.40;;;;;;5057952;28;20017;-76
2023/10/06 01:07:19;;;;;;;6.97;3.92;;;14.40;94.50;;;;;;5056668;28;20013;-76
2023/10/06 01:09:56;;;;;;;8.10;4.65;;;14.30;94.60;;;;;;5057853;28;20025;-76
2023/10/06 01:12:22;;;;;;;8.45;4.25;;;14.40;94.60;;;;;;5075383;28;20063;-76
2023/10/06 01:14:51;;;;;;;8.13;4.63;;;14.40;94.60;;;;;;5075290;28;20025;-75
2023/10/06 01:17:18;;;;;;;8.13;4.20;;;14.40;94.50;;;;;;5075375;28;20025;-75
2023/10/06 01:19:47;;;;;;;9.75;4.40;;;14.30;94.60;;;;;;5074184;28;20029;-75
2023/10/06 01:22:30;;;;;;;9.13;4.00;;;14.30;94.70;;;;;;5057664;28;20051;-76
2023/10/06 01:24:58;;;;;;;8.63;4.05;;;14.30;94.70;;;;;;5057561;28;20402;-76
2023/10/06 01:27:27;;;;;;;8.02;4.35;;;14.30;94.60;;;;;;5075073;28;20099;-76
2023/10/06 01:30:17;;;;;;;9.18;4.20;;;14.30;94.70;;;;;;5075022;28;20033;-76
2023/10/06 01:32:41;;;;;;;11.98;4.30;;;14.30;94.70;;;;;;5074832;28;20037;-76
2023/10/06 01:35:12;;;;;;;8.05;4.45;;;14.20;94.80;;;;;;5056880;28;20037;-76
2023/10/06 01:37:41;;;;;;;10.00;4.15;;;14.30;94.80;;;;;;5075055;28;20120;-76
2023/10/06 01:40:15;;;;;;;11.02;4.03;;;14.30;94.70;;;;;;5073967;28;20036;-76
2023/10/06 01:42:41;;;;;;;6.28;3.85;;;14.30;94.80;;;;;;5058505;28;20042;-76
2023/10/06 01:45:14;;;;;;;9.35;4.18;;;14.30;94.80;;;;;;5056980;28;20064;-76
2023/10/06 01:47:40;;;;;;;9.07;3.85;;;14.30;94.80;;;;;;5057004;28;20025;-75
2023/10/06 01:50:06;;;;;;;8.43;4.25;;;14.20;94.80;;;;;;5074645;28;20044;-75
2023/10/06 01:52:32;;;;;;;8.75;3.90;;;14.20;94.80;;;;;;5074593;28;20043;-76
2023/10/06 01:54:58;;;;;;;10.35;4.85;;;14.30;94.80;;;;;;5056954;28;20032;-77
2023/10/06 01:57:26;;;;;;;8.98;4.10;;;14.30;94.80;;;;;;5074451;28;20052;-77
2023/10/06 01:59:52;;;;;;;8.40;4.47;;;14.30;94.80;;;;;;5073468;28;20043;-78
2023/10/06 02:02:23;;;;;;;12.20;4.80;;;14.30;94.80;;;;;;5073462;28;20025;-77
2023/10/06 02:04:50;;;;;;;11.60;5.20;;;14.20;94.90;;;;;;5074505;28;20031;-77
2023/10/06 02:07:18;;;;;;;7.78;4.03;;;14.20;95.00;;;;;;5056576;28;20035;-78
2023/10/06 02:09:44;;;;;;;9.77;4.07;;;14.20;95.00;;;;;;5074283;28;20025;-77
2023/10/06 02:12:12;;;;;;;10.10;4.60;;;14.20;95.40;;;;;;5056675;28;20104;-77
2023/10/06 02:14:38;;;;;;;7.18;4.10;;;14.10;95.10;;;;;;5073348;28;20025;-78
2023/10/06 02:17:08;;;;;;;11.48;4.30;;;14.10;95.10;;;;;;5073878;28;20387;-77
2023/10/06 02:19:36;;;;;;;10.63;4.68;;;14.10;95.20;;;;;;5056383;28;20025;-77
2023/10/06 02:22:06;;;;;;;8.02;4.43;;;14.10;95.00;;;;;;5073950;28;20021;-78
2023/10/06 02:24:32;;;;;;;9.50;4.30;;;14.10;95.10;;;;;;5073959;28;20045;-78
2023/10/06 02:26:58;;;;;;;8.63;4.00;;;14.10;95.10;;;;;;5056168;28;20025;-78
2023/10/06 02:29:24;;;;;;;9.85;4.68;;;14.00;95.10;;;;;;5073911;28;20028;-77
2023/10/06 02:31:50;;;;;;;9.82;4.38;;;14.00;95.30;;;;;;5056243;28;20036;-77
2023/10/06 02:34:29;;;;;;;10.57;4.18;;;14.00;95.30;;;;;;5072919;28;20104;-78
2023/10/06 02:36:57;;;;;;;10.77;4.32;;;14.00;95.50;;;;;;5072767;28;20041;-78
2023/10/06 02:39:29;;;;;;;8.65;4.72;;;14.00;95.40;;;;;;5073611;28;20040;-78
2023/10/06 02:41:57;;;;;;;8.25;4.43;;;14.00;95.40;;;;;;5057163;28;20085;-77
2023/10/06 02:44:24;;;;;;;10.10;4.55;;;14.00;95.20;;;;;;5072734;28;20027;-78
2023/10/06 02:46:53;;;;;;;12.25;4.75;;;14.00;95.20;;;;;;5056086;28;20037;-77
2023/10/06 02:49:31;;;;;;;9.07;4.97;;;14.00;95.30;;;;;;5055915;28;20054;-77
2023/10/06 02:52:00;;;;;;;9.07;4.30;;;14.00;95.50;;;;;;5073523;28;20054;-77
2023/10/06 02:54:30;;;;;;;9.30;4.15;;;13.90;95.40;;;;;;5072601;28;20029;-78
2023/10/06 02:56:56;;;;;;;8.10;4.25;;;13.90;95.30;;;;;;5073554;28;20031;-78
2023/10/06 02:59:25;;;;;;;7.80;4.43;;;13.90;95.50;;;;;;5073281;28;20025;-78
2023/10/06 03:02:00;;;;;;;11.65;4.30;;;13.90;95.60;;;;;;5073497;28;20032;-78
2023/10/06 03:04:27;;;;;;;10.63;4.38;;;13.90;95.40;;;;;;5073391;28;20031;-78
2023/10/06 03:06:58;;;;;;;10.52;4.72;;;13.90;95.30;;;;;;5073269;28;20041;-77
2023/10/06 03:09:38;;;;;;;8.63;4.47;;;13.90;95.40;;;;;;5055798;28;20032;-77
2023/10/06 03:14:54;;;;;;;13.13;4.63;;;13.80;95.50;;;;;;5073324;28;20036;-77
2023/10/06 03:17:20;;;;;;;7.55;4.47;;;13.80;95.50;;;;;;5073293;28;20460;-77
2023/10/06 03:20:04;;;;;;;9.68;4.53;;;13.90;95.60;;;;;;5073080;28;20051;-77
2023/10/06 03:22:30;;;;;;;8.55;4.13;;;13.80;95.50;;;;;;5073160;28;20017;-77
2023/10/06 03:25:00;;;;;;;10.70;4.40;;;13.80;95.60;;;;;;5073074;28;20047;-77
2023/10/06 03:27:26;;;;;;;9.43;5.18;;;13.80;95.70;;;;;;5072231;28;20029;-77
2023/10/06 03:29:55;;;;;;;9.70;4.20;;;13.80;95.70;;;;;;5073568;28;20029;-77
2023/10/06 03:32:32;;;;;;;10.00;4.68;;;13.80;95.50;;;;;;5059703;28;20049;-77
2023/10/06 03:37:51;;;;;;;11.25;4.30;;;13.80;95.60;;;;;;5077063;28;20510;-77
2023/10/06 03:40:35;;;;;;;11.32;4.40;;;13.70;95.70;;;;;;5043638;28;20029;-77
2023/10/06 03:43:05;;;;;;;8.80;3.90;;;13.70;95.80;;;;;;5077090;28;20021;-77
2023/10/06 03:45:32;;;;;;;7.25;4.00;;;13.80;95.70;;;;;;5077023;28;20158;-77
2023/10/06 03:48:13;;;;;;;8.80;3.92;;;13.70;95.80;;;;;;5076065;28;20021;-77
2023/10/06 03:50:43;;;;;;;8.68;3.92;;;13.70;95.80;;;;;;5077057;28;20029;-77
2023/10/06 03:53:11;;;;;;;9.43;4.13;;;13.70;95.80;;;;;;5076980;28;20029;-77
2023/10/06 03:55:45;;;;;;;9.18;3.88;;;13.70;95.70;;;;;;5076819;28;20025;-77
2023/10/06 03:58:13;;;;;;;6.03;3.58;;;13.70;95.60;;;;;;5076806;28;20025;-77
2023/10/06 04:00:40;;;;;;;7.38;4.00;;;13.60;95.80;;;;;;5058930;28;20020;-77
2023/10/06 04:03:11;;;;;;;9.68;3.90;;;13.60;95.70;;;;;;5058977;28;20043;-77
2023/10/06 04:05:40;;;;;;;8.90;4.13;;;13.70;95.60;;;;;;5076639;28;20017;-77
2023/10/06 04:08:13;;;;;;;8.45;3.88;;;13.60;95.70;;;;;;5076852;28;20029;-77
2023/10/06 04:10:40;;;;;;;10.07;4.00;;;13.60;95.70;;;;;;5075906;28;20025;-77
2023/10/06 04:13:28;;;;;;;7.85;3.40;;;13.60;95.60;;;;;;5076648;28;20029;-77
2023/10/06 04:15:53;;;;;;;6.35;3.80;;;13.60;95.60;;;;;;5075347;28;20051;-77
2023/10/06 04:18:24;;;;;;;14.98;4.30;;;13.60;95.50;;;;;;5058711;28;20027;-77
2023/10/06 04:20:52;;;;;;;6.70;3.90;;;13.60;95.40;;;;;;5076402;28;20036;-77
2023/10/06 04:23:18;;;;;;;7.88;3.40;;;13.50;95.50;;;;;;5058556;28;20017;-77
2023/10/06 04:25:46;;;;;;;9.82;4.07;;;13.40;95.60;;;;;;5076215;28;20021;-77
2023/10/06 04:28:14;;;;;;;9.70;4.32;;;13.40;95.60;;;;;;5076167;28;20021;-77
2023/10/06 04:30:42;;;;;;;7.68;4.03;;;13.50;95.50;;;;;;5076045;28;20025;-77
2023/10/06 04:33:10;;;;;;;9.43;4.25;;;13.40;95.40;;;;;;5058596;28;20047;-77
2023/10/06 04:35:40;;;;;;;7.88;3.92;;;13.40;95.40;;;;;;5075809;28;20028;-77
2023/10/06 04:38:09;;;;;;;11.10;3.80;;;13.50;95.20;;;;;;5076046;28;20044;-77
2023/10/06 04:40:36;;;;;;;8.55;3.92;;;13.40;95.20;;;;;;5075874;28;20021;-77
2023/10/06 04:43:05;;;;;;;9.85;4.05;;;13.30;95.50;;;;;;5075857;28;20021;-77
2023/10/06 04:45:31;;;;;;;8.57;4.28;;;13.40;95.40;;;;;;5075699;28;20047;-77
2023/10/06 04:48:00;;;;;;;8.05;3.97;;;13.30;95.40;;;;;;5075794;28;20017;-77
2023/10/06 04:50:29;;;;;;;8.13;4.28;;;13.30;95.30;;;;;;5075757;28;20047;-77
2023/10/06 04:52:58;;;;;;;9.48;3.97;;;13.30;95.40;;;;;;5075782;28;20032;-77
2023/10/06 04:55:24;;;;;;;7.55;3.78;;;13.30;95.40;;;;;;5058007;28;20033;-77
2023/10/06 04:57:50;;;;;;;8.40;4.30;;;13.30;95.60;;;;;;5075600;28;20040;-75
2023/10/06 05:00:19;;;;;;;11.13;4.43;;;13.30;95.40;;;;;;5074764;28;20081;-75
2023/10/06 05:02:47;;;;;;;9.52;4.10;;;13.30;95.40;;;;;;5075591;28;20468;-75
2023/10/06 05:05:22;;;;;;;11.35;4.80;;;13.30;95.40;;;;;;5074710;28;20059;-75
2023/10/06 05:07:49;;;;;;;8.75;3.95;;;13.30;95.40;;;;;;5074542;28;20037;-75
2023/10/06 05:10:18;;;;;;;7.55;3.50;;;13.20;95.40;;;;;;5074437;28;20051;-75
2023/10/06 05:12:44;;;;;;;9.43;4.53;;;13.20;95.50;;;;;;5075349;28;20088;-75
2023/10/06 05:15:17;;;;;;;6.85;3.17;;;13.20;95.60;;;;;;5075318;28;20040;-74
2023/10/06 05:17:43;;;;;;;8.38;3.92;;;13.20;95.60;;;;;;5057690;28;20036;-75
2023/10/06 05:20:19;;;;;;;7.72;3.28;;;13.10;95.70;;;;;;5074128;28;20033;-75
2023/10/06 05:22:46;;;;;;;6.00;3.05;;;13.10;95.70;;;;;;5057587;28;20025;-76
2023/10/06 05:25:13;;;;;;;8.02;3.72;;;13.10;95.80;;;;;;5075145;28;20399;-77
2023/10/06 05:27:39;;;;;;;9.82;3.88;;;13.10;95.70;;;;;;5057389;28;20107;-77
2023/10/06 05:30:06;;;;;;;8.23;3.88;;;13.20;95.70;;;;;;5075037;28;20056;-77
2023/10/06 05:32:32;;;;;;;5.50;3.47;;;13.10;95.70;;;;;;5057332;28;20110;-77
2023/10/06 05:34:58;;;;;;;8.23;3.45;;;13.20;95.60;;;;;;5074986;28;20029;-77
2023/10/06 05:37:23;;;;;;;7.30;3.53;;;13.20;95.70;;;;;;5053702;28;20060;-77
2023/10/06 05:39:49;;;;;;;8.52;3.50;;;13.20;95.70;;;;;;5053782;28;20029;-77
2023/10/06 05:42:15;;;;;;;9.35;3.40;;;13.20;95.50;;;;;;5053902;28;20035;-75
2023/10/06 05:44:41;;;;;;;10.05;3.15;;;13.20;95.50;;;;;;5037188;28;20021;-75
2023/10/06 05:47:09;;;;;;;8.75;3.58;;;13.20;95.60;;;;;;5054740;28;20034;-75
2023/10/06 05:49:38;;;;;;;9.38;4.88;;;13.30;95.50;;;;;;5037492;28;20034;-76
2023/10/06 05:52:10;;;;;;;8.25;3.85;;;13.30;95.40;;;;;;5037010;28;20025;-75
2023/10/06 05:54:37;;;;;;;7.50;3.25;;;13.30;95.20;;;;;;5053705;28;20018;-75
2023/10/06 05:57:04;;;;;;;8.40;3.47;;;13.30;95.20;;;;;;5053687;28;20405;-75
2023/10/06 05:59:33;;;;;;;8.07;4.00;;;13.30;95.20;;;;;;5054452;28;20036;-75
2023/10/06 06:02:02;;;;;;;10.10;3.88;;;13.30;95.20;;;;;;5053481;28;20044;-76
2023/10/06 06:04:27;;;;;;;7.03;4.00;;;13.30;95.20;;;;;;5053432;28;20033;-76
2023/10/06 06:06:57;;;;;;;7.85;3.17;;;13.30;95.20;;;;;;5054477;28;20029;-75
2023/10/06 06:09:23;;;;;;;7.95;3.53;;;13.20;95.20;;;;;;5054263;28;20021;-75
2023/10/06 06:11:49;;;;;;;7.07;3.60;;;13.20;95.40;;;;;;5053269;28;20079;-76
2023/10/06 06:14:15;;;;;;;8.55;3.30;;;13.30;95.20;;;;;;5054142;28;20026;-75
2023/10/06 06:16:44;;;;;;;9.07;3.60;;;13.30;95.20;;;;;;5054178;28;20044;-75
2023/10/06 06:19:11;;;;;;;6.30;3.08;;;13.20;95.20;;;;;;5037004;28;20056;-75
2023/10/06 06:21:38;;;;;;;7.70;4.07;;;13.30;95.30;;;;;;5054073;28;20108;-76
2023/10/06 06:24:06;;;;;;;7.68;3.45;;;13.30;95.30;;;;;;5054052;28;20021;-76
2023/10/06 06:26:32;;;;;;;10.35;3.97;;;13.30;95.40;;;;;;5053992;28;20029;-76
2023/10/06 06:29:03;;;;;;;7.72;3.28;;;13.30;95.40;;;;;;5052993;28;20034;-76
2023/10/06 06:31:34;;;;;;;7.13;3.50;;;13.30;95.40;;;;;;5053923;28;20030;-75
2023/10/06 06:34:04;;;;;;;10.38;4.07;;;13.30;95.40;;;;;;5053887;28;20037;-75
2023/10/06 06:36:33;;;;;;;6.90;3.13;;;13.40;95.40;;;;;;5063117;28;20075;-75
2023/10/06 06:38:59;;;;;;;11.15;3.90;;;13.40;95.40;;;;;;5073722;28;20029;-76
2023/10/06 06:41:25;;;;;;;7.70;3.55;;;13.50;95.50;;;;;;5072754;28;20036;-76
2023/10/06 06:43:58;;;;;;;7.13;3.47;;;13.60;95.40;;;;;;5073625;28;20025;-76
2023/10/06 06:46:29;;;;;;;;;;;13.60;95.30;;;;;;5073185;28;20028;-75
2023/10/06 06:48:55;;;;;;;6.13;2.88;;;13.50;95.30;;;;;;5055936;28;20013;-76
2023/10/06 06:51:27;;;;;;;9.52;3.72;;;13.40;95.40;;;;;;5055859;28;20443;-76
2023/10/06 06:53:56;;;;;;;8.40;3.38;;;13.50;95.40;;;;;;5055956;28;20085;-75
2023/10/06 06:56:28;;;;;;;9.65;3.42;;;13.50;95.40;;;;;;5055822;28;20033;-76
2023/10/06 06:58:59;;;;;;;;;;;13.60;95.30;;;;;;5073899;28;20032;-75
2023/10/06 07:01:25;;;;;;;6.45;3.22;;;13.50;95.40;;;;;;5073326;28;19943;-75
2023/10/06 07:03:50;;;;;;;7.72;3.42;;;13.50;95.50;;;;;;5055158;28;20079;-76
2023/10/06 07:06:20;;;;;;;7.63;3.75;;;13.50;95.50;;;;;;5072161;28;20047;-76
2023/10/06 07:08:46;;;;;;;7.78;3.50;;;13.50;95.50;;;;;;5055566;28;20162;-77
2023/10/06 07:11:13;;;;;;;7.40;4.55;;;13.60;95.50;;;;;;5072422;28;20032;-75
2023/10/06 07:13:39;;;;;;;8.18;4.28;;;13.70;95.40;;;;;;5073193;28;20021;-75
2023/10/06 07:16:06;;;;;;;8.55;4.40;;;13.70;95.30;;;;;;5073183;28;20117;-76
2023/10/06 07:18:36;;;;;;;6.07;3.17;;;13.70;95.30;;;;;;5073314;28;20056;-76
2023/10/06 07:21:10;;;;;;;8.35;3.80;;;13.70;95.30;;;;;;5055404;28;20032;-77
2023/10/06 07:23:37;;;;;;;7.90;3.88;;;13.70;95.40;;;;;;5073148;28;20017;-77
2023/10/06 07:26:15;;;;;;;6.18;3.28;;;13.60;95.30;;;;;;5073092;28;20021;-79
2023/10/06 07:28:41;;;;;;;7.50;3.67;;;13.70;95.30;;;;;;5039348;28;20036;-78
2023/10/06 07:31:11;;;;;;;10.23;3.80;;;13.70;95.30;;;;;;5073058;28;20021;-78
2023/10/06 07:33:37;;;;;;;8.27;3.90;;;13.70;95.30;;;;;;5072050;28;20052;-78
2023/10/06 07:36:14;;;;;;;6.57;3.38;;;13.80;95.30;;;;;;5055190;28;20059;-78
2023/10/06 07:38:43;;;;;;;7.97;3.78;;;13.80;95.40;;;;;;5038881;28;20025;-78
2023/10/06 07:41:16;;;;;;;9.38;3.92;;;13.80;95.40;;;;;;5055275;28;20092;-78
2023/10/06 07:43:41;;;;;;;7.45;3.50;;;13.90;95.40;;;;;;5072974;28;20017;-78
2023/10/06 07:46:07;;;;;;;8.40;4.07;;;14.00;95.50;;;;;;5071991;28;20035;-77
2023/10/06 07:48:36;;;;;;;5.65;3.42;;;14.10;95.30;;;;;;5055335;28;20025;-77
2023/10/06 07:51:08;;;;;;;8.05;3.72;;;14.10;95.10;;;;;;5072891;28;20095;-77
2023/10/06 07:53:38;;;;;;;8.32;3.75;;;14.20;95.20;;;;;;5071975;28;20400;-78
2023/10/06 07:56:08;;;;;;;6.18;3.35;;;14.20;95.00;;;;;;5071988;28;20021;-78
2023/10/06 07:58:37;;;;;;;7.05;3.13;;;14.30;95.00;;;;;;5072824;28;20071;-77
2023/10/06 08:01:08;;;;;;;7.28;3.30;;;14.40;94.80;;;;;;5055128;28;20055;-78
2023/10/06 08:03:39;;;;;;;7.55;3.28;;;14.40;94.90;;;;;;5072806;28;20022;-78
2023/10/06 08:06:06;;;;;;;7.63;3.28;;;14.50;94.50;;;;;;5072842;28;20029;-77
2023/10/06 08:08:33;;;;;;;11.30;3.78;;;14.70;94.50;;;;;;5054970;28;20017;-77
2023/10/06 08:11:01;;;;;;;9.57;3.80;;;14.70;94.60;;;;;;5055024;28;20089;-78
2023/10/06 08:13:31;;;;;;;7.63;3.30;;;14.80;94.00;;;;;;5054983;28;20029;-78
2023/10/06 08:16:06;;;;;;;8.27;3.53;;;14.80;94.00;;;;;;5056365;28;20035;-78
2023/10/06 08:18:32;;;;;;;5.78;2.70;;;14.90;94.40;;;;;;5076491;28;20040;-78
2023/10/06 08:21:03;;;;;;;8.25;3.50;;;15.00;94.40;;;;;;5058587;28;20037;-79
2023/10/06 08:23:29;;;;;;;9.27;3.33;;;15.00;93.70;;;;;;5076364;28;20047;-78
2023/10/06 08:25:58;;;;;;;9.68;3.58;;;15.10;93.80;;;;;;5058560;28;20093;-78
2023/10/06 08:28:26;;;;;;;7.30;4.03;;;15.20;93.70;;;;;;5075386;28;20064;-78
2023/10/06 08:30:54;;;;;;;5.20;3.42;;;15.30;93.70;;;;;;5076201;28;20024;-77
2023/10/06 08:33:20;;;;;;;7.18;3.28;;;15.40;93.70;;;;;;5076120;28;20029;-77
2023/10/06 08:35:45;;;;;;;7.68;4.15;;;15.40;93.40;;;;;;5075809;28;20102;-77
2023/10/06 08:38:11;;;;;;;8.75;3.40;;;15.60;94.10;;;;;;5076210;28;20113;-76
2023/10/06 08:40:41;;;;;;;8.10;3.75;;;15.60;93.70;;;;;;5058219;28;20044;-77
2023/10/06 08:43:07;;;;;;;8.63;3.80;;;15.70;93.60;;;;;;5058356;28;20021;-76
2023/10/06 08:45:40;;;;;;;6.95;3.03;;;15.80;93.50;;;;;;5075832;28;20085;-75
2023/10/06 08:48:10;;;;;;;9.07;3.30;;;16.00;93.80;;;;;;5075874;28;20017;-75
2023/10/06 08:50:39;;;;;;;7.22;2.92;;;16.10;92.80;;;;;;5075828;28;20025;-75
2023/10/06 08:53:09;;;;;;;8.93;3.47;;;16.10;92.70;;;;;;5058134;28;20063;-75
2023/10/06 08:55:37;;;;;;;7.80;3.78;;;16.10;93.00;;;;;;5074840;28;20029;-75
2023/10/06 08:58:04;;;;;;;7.28;3.03;;;16.20;93.20;;;;;;5058343;28;20036;-75
2023/10/06 09:00:32;;;;;;;8.85;3.20;;;16.30;92.90;;;;;;5074633;28;20032;-75
2023/10/06 09:03:07;;;;;;;6.82;3.38;;;16.40;93.10;;;;;;5075591;28;20031;-75
2023/10/06 09:05:44;;;;;;;7.30;3.28;;;16.40;92.80;;;;;;5075602;28;20024;-75
2023/10/06 09:08:14;;;;;;;9.80;3.40;;;16.40;92.80;;;;;;5075494;28;20021;-75
2023/10/06 09:10:51;;;;;;;9.02;3.22;;;16.30;92.70;;;;;;5074732;28;20036;-75
2023/10/06 09:13:21;;;;;;;7.40;3.40;;;16.30;92.80;;;;;;5057758;28;20024;-76
2023/10/06 09:15:59;;;;;;;5.05;2.80;;;16.30;93.00;;;;;;5075481;28;20025;-75
2023/10/06 09:18:29;;;;;;;8.02;3.38;;;16.30;93.10;;;;;;5057636;28;20060;-76
2023/10/06 09:21:09;;;;;;;20.60;3.88;;;16.30;93.20;;;;;;5074530;28;20111;-77
2023/10/06 09:23:40;;;;;;;6.85;3.55;;;16.30;93.50;;;;;;5075241;28;20017;-76
2023/10/06 09:26:11;;;;;;;6.85;3.22;;;16.40;93.20;;;;;;5057609;28;20103;-75
2023/10/06 09:28:59;;;;;;;6.75;3.63;;;16.50;93.70;;;;;;5056536;28;20093;-76
2023/10/06 09:31:44;;;;;;;10.02;3.50;;;16.70;93.60;;;;;;5057415;28;20029;-75
2023/10/06 09:34:11;;;;;;;11.32;3.50;;;16.90;93.80;;;;;;5074970;28;20044;-75
2023/10/06 09:36:38;;;;;;;9.73;3.50;;;17.00;93.20;;;;;;5074720;28;20059;-76
2023/10/06 09:39:13;;;;;;;7.88;3.70;;;17.10;92.70;;;;;;5057219;28;20025;-76
2023/10/06 09:41:39;;;;;;;7.82;3.17;;;17.10;92.90;;;;;;5058591;28;20025;-76
2023/10/06 09:44:09;;;;;;;7.82;3.42;;;17.20;92.60;;;;;;5074771;28;20036;-76
2023/10/06 09:46:35;;;;;;;9.35;3.30;;;17.30;92.60;;;;;;5057228;28;20045;-77
2023/10/06 09:49:09;;;;;;;8.65;3.10;;;17.30;92.60;;;;;;5073851;28;20032;-77
2023/10/06 09:51:36;;;;;;;5.70;2.60;;;17.40;92.30;;;;;;5057025;28;20041;-77
2023/10/06 09:54:04;;;;;;;8.10;2.63;;;17.40;91.90;;;;;;5056929;28;20025;-77
2023/10/06 09:56:31;;;;;;;2.40;1.55;;;17.60;92.60;;;;;;5074529;28;20414;-76
2023/10/06 09:58:59;;;;;;;7.35;2.67;;;17.60;91.30;;;;;;5056814;28;20017;-76
2023/10/06 10:01:25;;;;;;;6.25;2.65;;;17.70;91.80;;;;;;5056944;28;20052;-76
2023/10/06 10:03:56;;;;;;;5.60;2.70;;;17.70;91.90;;;;;;5074401;28;20415;-77
2023/10/06 10:06:23;;;;;;;4.40;2.85;;;17.70;91.40;;;;;;5074314;28;20040;-79
2023/10/06 10:08:51;;;;;;;7.90;2.78;;;17.80;91.40;;;;;;5074309;28;20032;-79
2023/10/06 10:11:31;;;;;;;6.38;2.90;;;17.90;91.50;;;;;;5074437;28;20104;-78
2023/10/06 10:14:30;;;;;;;4.07;2.38;;;18.00;91.80;;;;;;5074349;28;20035;-76
2023/10/06 10:17:21;;;;;;;6.20;2.85;;;18.10;90.80;;;;;;5074374;28;20025;-77
2023/10/06 10:19:48;;;;;;;9.65;2.70;;;18.00;91.00;;;;;;5074103;28;20075;-78
2023/10/06 10:22:16;;;;;;;3.80;2.35;;;18.00;91.20;;;;;;5074096;28;20025;-78
2023/10/06 10:24:43;;;;;;;6.55;3.00;;;18.00;91.10;;;;;;5056344;28;20052;-78
2023/10/06 10:27:13;;;;;;;6.03;2.92;;;18.10;91.50;;;;;;5073069;28;20021;-79
2023/10/06 10:29:41;;;;;;;6.18;2.75;;;18.30;91.20;;;;;;5073904;28;20029;-75
2023/10/06 10:32:23;;;;;;;8.55;2.95;;;18.40;90.60;;;;;;5073079;28;20112;-75
2023/10/06 10:35:08;;;;;;;6.55;2.85;;;18.60;90.60;;;;;;5072981;28;20032;-76
2023/10/06 10:37:55;;;;;;;6.90;2.97;;;18.60;90.20;;;;;;5055917;28;20041;-76
2023/10/06 10:40:26;;;;;;;7.07;3.28;;;18.60;90.40;;;;;;5055976;28;20051;-76
2023/10/06 10:43:06;;;;;;;6.82;3.58;;;18.60;89.90;;;;;;5072777;28;20028;-76
2023/10/06 10:45:44;;;;;;;7.38;2.95;;;18.60;89.70;;;;;;5056102;28;20036;-76
2023/10/06 10:48:14;;;;;;;10.27;3.20;;;18.70;90.20;;;;;;5073648;28;20061;-75
2023/10/06 10:51:11;;;;;;;6.47;2.53;;;18.60;89.60;;;;;;5072820;28;20028;-76
2023/10/06 10:53:43;;;;;;;5.03;2.80;;;18.60;89.40;;;;;;5055825;28;20468;-77
2023/10/06 10:56:17;;;;;;;5.85;2.72;;;18.60;90.60;;;;;;5055880;28;20036;-77
2023/10/06 10:58:43;;;;;;;7.82;3.20;;;18.80;90.30;;;;;;5073447;28;20028;-76
2023/10/06 11:01:32;;;;;;;6.80;2.25;;;18.90;89.30;;;;;;5073369;28;20017;-76
2023/10/06 11:04:29;;;;;;;6.60;2.63;;;18.90;87.90;;;;;;5055680;28;20031;-76
2023/10/06 11:06:56;;;;;;;6.53;2.72;;;19.00;87.30;;;;;;5055767;28;20024;-75
2023/10/06 11:09:30;;;;;;;7.53;2.67;;;18.90;87.10;;;;;;5055551;28;20071;-76
2023/10/06 11:11:58;;;;;;;8.77;3.10;;;18.90;88.40;;;;;;5072447;28;20025;-76
2023/10/06 11:14:26;;;;;;;6.60;2.60;;;18.90;89.30;;;;;;5055566;28;20083;-76
2023/10/06 11:16:53;;;;;;;5.18;2.55;;;19.00;88.40;;;;;;5072330;28;20021;-76
2023/10/06 11:19:19;;;;;;;4.20;2.20;;;19.20;88.30;;;;;;5073060;28;20025;-75
2023/10/06 11:21:48;;;;;;;6.15;2.65;;;19.10;85.30;;;;;;5055554;28;20020;-75
2023/10/06 11:24:27;;;;;;;4.75;2.78;;;18.90;86.50;;;;;;5039393;28;20036;-75
2023/10/06 11:26:53;;;;;;;6.30;2.40;;;18.90;86.20;;;;;;5055523;28;20028;-76
2023/10/06 11:29:29;;;;;;;6.10;2.45;;;18.90;86.40;;;;;;5073099;28;20033;-76
2023/10/06 11:31:57;;;;;;;6.53;2.50;;;18.90;87.90;;;;;;5073067;28;20024;-76
2023/10/06 11:34:24;;;;;;;7.13;2.63;;;19.00;88.50;;;;;;5072044;28;20027;-76
2023/10/06 11:36:56;;;;;;;5.45;2.60;;;19.10;88.10;;;;;;5071960;28;20053;-76
2023/10/06 11:39:29;;;;;;;9.25;2.42;;;19.10;88.60;;;;;;5055249;28;20029;-75
2023/10/06 11:42:23;;;;;;;5.78;2.78;;;19.10;87.80;;;;;;5073219;28;20018;-76
2023/10/06 11:44:52;;;;;;;7.82;2.92;;;19.10;87.30;;;;;;5072959;28;20384;-76
2023/10/06 11:47:39;;;;;;;7.32;2.72;;;19.00;87.30;;;;;;5072037;28;20029;-75
2023/10/06 11:50:05;;;;;;;5.47;2.67;;;19.00;86.70;;;;;;5054871;28;20033;-76
2023/10/06 11:52:32;;;;;;;9.73;2.92;;;19.10;86.60;;;;;;5076906;28;20035;-76
2023/10/06 11:54:58;;;;;;;8.23;3.08;;;19.20;87.20;;;;;;5076909;28;20029;-75
2023/10/06 11:57:46;;;;;;;7.07;2.92;;;19.10;86.20;;;;;;5076796;28;20025;-75
2023/10/06 12:00:19;;;;;;;6.28;2.83;;;19.10;85.40;;;;;;5076706;28;20136;-75
2023/10/06 12:02:53;;;;;;;8.40;2.72;;;19.00;87.10;;;;;;5076764;28;20017;-76
2023/10/06 12:05:21;;;;;;;6.22;3.10;;;18.90;87.10;;;;;;5059102;28;20029;-76
2023/10/06 12:07:47;;;;;;;5.60;2.30;;;18.90;87.90;;;;;;5058991;28;20021;-76
2023/10/06 12:10:17;;;;;;;10.05;3.08;;;19.00;87.40;;;;;;5058968;28;20039;-76
2023/10/06 12:12:45;;;;;;;5.63;3.00;;;19.00;87.80;;;;;;5076656;28;20017;-76
2023/10/06 12:15:14;;;;;;;7.20;3.22;;;19.10;88.80;;;;;;5058787;28;20029;-76
2023/10/06 12:17:40;;;;;;;9.98;2.75;;;19.10;87.60;;;;;;5059194;28;20028;-76
2023/10/06 12:20:16;;;;;;;5.10;2.70;;;19.20;86.30;;;;;;5076350;28;20029;-76
2023/10/06 12:22:45;;;;;;;7.13;2.80;;;19.20;87.20;;;;;;5076494;28;20029;-76
2023/10/06 12:25:12;;;;;;;6.90;2.95;;;19.30;86.70;;;;;;5058634;28;20056;-75
2023/10/06 12:27:44;;;;;;;6.35;2.83;;;19.20;86.80;;;;;;5075371;28;20021;-76
2023/10/06 12:30:11;;;;;;;5.07;2.65;;;19.20;86.80;;;;;;5058551;28;20041;-75
2023/10/06 12:32:37;;;;;;;6.82;2.60;;;19.20;86.20;;;;;;5076169;28;20100;-76
2023/10/06 12:35:06;;;;;;;7.10;2.83;;;19.20;86.80;;;;;;5058506;28;20026;-76
2023/10/06 12:37:40;;;;;;;7.68;3.47;;;19.30;87.30;;;;;;5058199;28;20081;-76
2023/10/06 12:40:10;;;;;;;6.50;3.42;;;19.50;86.30;;;;;;5059209;28;20033;-76
2023/10/06 12:42:39;;;;;;;8.20;3.45;;;19.50;85.00;;;;;;5058309;28;20021;-76
2023/10/06 12:45:17;;;;;;;7.78;2.88;;;19.60;84.80;;;;;;5041765;28;20017;-76
2023/10/06 12:47:45;;;;;;;7.35;2.97;;;19.60;85.10;;;;;;5075935;28;20029;-76
2023/10/06 12:50:16;;;;;;;8.90;3.33;;;19.60;85.30;;;;;;5058188;28;20016;-76
2023/10/06 12:52:42;;;;;;;11.10;3.60;;;19.60;86.40;;;;;;5058144;28;20021;-76
2023/10/06 12:55:12;;;;;;;8.20;3.03;;;19.60;84.90;;;;;;5074890;28;20037;-76
2023/10/06 12:57:38;;;;;;;8.75;3.15;;;19.70;85.70;;;;;;5075701;28;20044;-76
2023/10/06 13:00:06;;;;;;;6.45;2.90;;;19.80;86.60;;;;;;5075603;28;20025;-75
2023/10/06 13:02:32;;;;;;;7.18;3.05;;;19.90;86.40;;;;;;5056561;28;20044;-76
2023/10/06 13:05:07;;;;;;;8.20;2.83;;;19.90;86.50;;;;;;5057931;28;20025;-76
2023/10/06 13:07:33;;;;;;;8.07;2.65;;;20.00;86.70;;;;;;5057863;28;20017;-76
2023/10/06 13:10:01;;;;;;;7.78;2.95;;;20.10;84.70;;;;;;5057830;28;20021;-76